You are not logged in, Click here to log in
臺北松山機場TSA / RCSS 臺北市松山區敦化北路340-9號
ICAO: RCSS Country: 臺北市松山區敦化北路340-9號
Latitude: 25.0676 Longitude: 121.553
Total Arrivals: 340 Total Departures: 308
Latest Arrival: BR771 (ZSSS-RCSS)CHU. CHUHAO Latest Departure: BR260 (RCSS-RKSS)Jason. Li
Scenery:
METAR : RCSS 312200Z 11009KT 9999 FEW025 22/21 Q1016 NOSIG RMK A3001

臺北松山機場TSA

You are accessing this site from IP address 34.201.9.19. Virtual Airline. CMS by phpVMS.Website designed by Zumeweb and edited by Theo Bearman.
There is 0 User(s) Online: | and 29 Guest(s) Online.
All information on this site is for fight simulation purposes only. This site is for flight logging for pilots of Virtual Airline&模擬飛行論壇 FlySim only.